Time;durP1;ratioP1;P1;durP2;ratioP2;P2;SDS_P1;SDS_P2;PMS_P1;PMS_P2;Temp;Humidity;BMP_temperature;BMP_pressure;BME280_temperature;BME280_humidity;BME280_pressure;Samples;Min_cycle;Max_cycle;Signal;HPM_P1;HPM_P2
2022/10/16 00:01:24;;;;;;;1.83;0.73;;;13.00;99.90;;;;;;4977998;28;20049;-70
2022/10/16 00:03:50;;;;;;;3.10;0.50;;;13.00;99.90;;;;;;4973616;28;20039;-68
2022/10/16 00:06:18;;;;;;;4.07;0.50;;;13.00;99.90;;;;;;4974651;28;20113;-70
2022/10/16 00:08:45;;;;;;;1.20;0.60;;;12.90;99.90;;;;;;4980631;28;20031;-70
2022/10/16 00:11:13;;;;;;;6.90;1.23;;;13.00;99.90;;;;;;4977476;28;20573;-70
2022/10/16 00:13:41;;;;;;;1.35;0.50;;;12.90;99.90;;;;;;4974383;28;20052;-69
2022/10/16 00:16:07;;;;;;;5.40;0.68;;;12.90;99.90;;;;;;4973101;28;20113;-70
2022/10/16 00:18:34;;;;;;;4.55;0.60;;;13.00;99.90;;;;;;4977998;28;20054;-70
2022/10/16 00:21:05;;;;;;;4.57;0.63;;;12.90;99.90;;;;;;4977569;28;20505;-70
2022/10/16 00:23:31;;;;;;;4.82;0.68;;;12.90;99.90;;;;;;4974303;28;20043;-69
2022/10/16 00:25:59;;;;;;;2.45;1.00;;;13.00;99.90;;;;;;4978665;28;20424;-70
2022/10/16 00:28:25;;;;;;;3.92;0.52;;;13.00;99.90;;;;;;4979279;28;20101;-70
2022/10/16 00:30:51;;;;;;;2.22;0.60;;;13.10;99.90;;;;;;4977404;28;20406;-70
2022/10/16 00:33:16;;;;;;;2.65;0.82;;;13.10;99.90;;;;;;4976607;28;20121;-70
2022/10/16 00:35:42;;;;;;;3.85;0.90;;;13.10;99.90;;;;;;4974647;28;20046;-70
2022/10/16 00:38:08;;;;;;;0.60;0.30;;;13.10;99.90;;;;;;4972841;28;20055;-69
2022/10/16 00:40:33;;;;;;;3.17;0.93;;;13.10;99.90;;;;;;4979637;28;20368;-71
2022/10/16 00:42:59;;;;;;;5.03;1.25;;;13.10;99.90;;;;;;4974081;28;20053;-71
2022/10/16 00:45:24;;;;;;;2.22;1.00;;;13.10;99.90;;;;;;4972522;28;20043;-70
2022/10/16 00:47:53;;;;;;;5.53;0.82;;;13.10;99.90;;;;;;4982710;28;20080;-72
2022/10/16 00:50:43;;;;;;;2.00;0.70;;;13.20;99.90;;;;;;4970545;28;20070;-70
2022/10/16 00:53:08;;;;;;;2.33;0.57;;;13.20;99.90;;;;;;4976383;28;20451;-71
2022/10/16 00:55:34;;;;;;;2.90;0.50;;;13.10;99.90;;;;;;4977300;28;20039;-69
2022/10/16 00:58:00;;;;;;;3.63;0.50;;;13.20;99.90;;;;;;4975631;28;20084;-72
2022/10/16 01:00:27;;;;;;;2.75;0.63;;;13.20;99.90;;;;;;4977166;28;20141;-70
2022/10/16 01:02:54;;;;;;;2.63;1.08;;;13.20;99.90;;;;;;4978427;28;20022;-69
2022/10/16 01:05:23;;;;;;;4.15;0.93;;;13.20;99.90;;;;;;4973001;28;20063;-71
2022/10/16 01:08:34;;;;;;;4.00;1.17;;;13.20;99.90;;;;;;4978383;28;20022;-73
2022/10/16 01:11:25;;;;;;;3.35;0.80;;;13.30;99.90;;;;;;4978065;28;20034;-70
2022/10/16 01:13:58;;;;;;;2.78;0.98;;;13.20;99.90;;;;;;4972008;28;20066;-70
2022/10/16 01:16:38;;;;;;;3.20;0.90;;;13.30;99.90;;;;;;4977924;28;20403;-70
2022/10/16 01:19:30;;;;;;;2.50;0.88;;;13.30;99.90;;;;;;4968548;28;20038;-69
2022/10/16 01:21:58;;;;;;;6.53;1.33;;;13.30;99.90;;;;;;4975099;28;20035;-70
2022/10/16 01:24:47;;;;;;;3.30;0.70;;;13.30;99.90;;;;;;4974350;28;20088;-70
2022/10/16 01:27:16;;;;;;;1.05;0.50;;;13.30;99.90;;;;;;4972009;28;20514;-72
2022/10/16 01:30:01;;;;;;;3.30;1.05;;;13.40;99.90;;;;;;4978245;28;20046;-71
2022/10/16 01:33:00;;;;;;;2.03;0.90;;;13.40;99.90;;;;;;4954953;28;20049;-70
2022/10/16 01:35:26;;;;;;;5.70;1.27;;;13.40;99.90;;;;;;4975826;28;20060;-70
2022/10/16 01:37:59;;;;;;;1.25;0.50;;;13.30;99.90;;;;;;4977865;28;20402;-70
2022/10/16 01:40:27;;;;;;;3.03;0.80;;;13.20;99.90;;;;;;4976262;28;20052;-71
2022/10/16 01:42:58;;;;;;;1.67;0.90;;;13.20;99.90;;;;;;4977433;28;20101;-71
2022/10/16 01:45:24;;;;;;;3.55;0.68;;;13.10;99.90;;;;;;4973060;28;20705;-69
2022/10/16 01:47:51;;;;;;;4.00;1.00;;;13.10;99.90;;;;;;4970520;28;20027;-70
2022/10/16 01:50:19;;;;;;;1.95;0.80;;;13.10;99.90;;;;;;4977436;28;20122;-70
2022/10/16 01:52:48;;;;;;;3.33;0.95;;;13.10;99.90;;;;;;4973198;28;20033;-70
2022/10/16 01:55:18;;;;;;;3.28;1.00;;;13.10;99.90;;;;;;4976022;28;20042;-70
2022/10/16 01:57:48;;;;;;;4.22;1.10;;;13.10;99.90;;;;;;4969111;28;20038;-70
2022/10/16 02:00:14;;;;;;;4.93;0.88;;;13.00;99.90;;;;;;4973444;28;20045;-69
2022/10/16 02:02:44;;;;;;;5.00;0.95;;;13.10;99.90;;;;;;4975266;28;20110;-69
2022/10/16 02:05:28;;;;;;;3.08;0.90;;;13.00;99.90;;;;;;4977385;28;20502;-69
2022/10/16 02:07:54;;;;;;;2.85;0.90;;;13.10;99.90;;;;;;4970127;28;20514;-71
2022/10/16 02:10:20;;;;;;;2.08;0.68;;;13.00;99.90;;;;;;4975877;28;20775;-70
2022/10/16 02:12:53;;;;;;;3.28;0.82;;;13.00;99.90;;;;;;4976101;28;20046;-70
2022/10/16 02:15:19;;;;;;;2.75;1.00;;;13.00;99.90;;;;;;4981928;28;20093;-71
2022/10/16 02:17:44;;;;;;;6.95;1.08;;;13.00;99.90;;;;;;4976726;28;20495;-70
2022/10/16 02:20:10;;;;;;;3.72;1.13;;;12.90;99.90;;;;;;4975467;28;20026;-70
2022/10/16 02:22:40;;;;;;;4.55;1.20;;;12.90;99.90;;;;;;4974240;28;20062;-70
2022/10/16 02:25:11;;;;;;;2.70;0.90;;;12.90;99.90;;;;;;4981913;28;20490;-72
2022/10/16 02:27:40;;;;;;;2.17;1.00;;;12.90;99.90;;;;;;4979958;28;20442;-69
2022/10/16 02:30:25;;;;;;;1.45;0.70;;;12.90;99.90;;;;;;4980753;28;20046;-70
2022/10/16 02:32:53;;;;;;;3.13;0.80;;;12.90;99.90;;;;;;4972082;28;20035;-70
2022/10/16 02:35:21;;;;;;;5.22;0.80;;;12.80;99.90;;;;;;4980567;28;20428;-68
2022/10/16 02:37:48;;;;;;;7.90;1.00;;;12.90;99.90;;;;;;4977796;28;20062;-70
2022/10/16 02:40:15;;;;;;;2.95;0.95;;;12.90;99.90;;;;;;4973682;28;20031;-68
2022/10/16 02:42:41;;;;;;;1.85;0.57;;;12.90;99.90;;;;;;4977360;28;20126;-70
2022/10/16 02:45:09;;;;;;;1.42;0.77;;;13.00;99.90;;;;;;4975185;28;20074;-69
2022/10/16 02:47:35;;;;;;;3.35;0.80;;;12.90;99.90;;;;;;4984066;28;20030;-69
2022/10/16 02:50:00;;;;;;;2.80;1.33;;;13.00;99.90;;;;;;4974447;28;20045;-69
2022/10/16 02:52:26;;;;;;;3.35;1.08;;;13.00;99.90;;;;;;4974478;28;20038;-68
2022/10/16 02:54:52;;;;;;;2.15;0.60;;;13.00;99.90;;;;;;4979480;28;20406;-67
2022/10/16 02:57:18;;;;;;;2.30;0.77;;;13.00;99.90;;;;;;4980910;28;20785;-69
2022/10/16 02:59:44;;;;;;;2.55;0.85;;;13.00;99.90;;;;;;4976987;28;20039;-75
2022/10/16 03:02:09;;;;;;;3.03;0.70;;;13.00;99.90;;;;;;4978409;28;20039;-71
2022/10/16 03:04:35;;;;;;;1.58;0.85;;;13.00;99.90;;;;;;4976809;28;20114;-68
2022/10/16 03:07:01;;;;;;;1.75;1.00;;;13.00;99.90;;;;;;4980971;28;20503;-69
2022/10/16 03:09:26;;;;;;;1.45;0.70;;;13.00;99.90;;;;;;4977208;28;20121;-70
2022/10/16 03:11:52;;;;;;;9.23;0.85;;;13.00;99.90;;;;;;4975151;28;20067;-69
2022/10/16 03:14:17;;;;;;;4.10;0.82;;;13.00;99.90;;;;;;4980047;28;20058;-69
2022/10/16 03:16:43;;;;;;;4.80;0.93;;;12.90;99.90;;;;;;4977247;28;20046;-69
2022/10/16 03:19:09;;;;;;;4.32;0.70;;;13.00;99.90;;;;;;4976308;28;20035;-71
2022/10/16 03:21:34;;;;;;;3.08;1.05;;;13.00;99.90;;;;;;4980035;28;20172;-67
2022/10/16 03:24:00;;;;;;;2.25;0.75;;;12.90;99.90;;;;;;4971480;28;20046;-69
2022/10/16 03:26:25;;;;;;;2.65;0.60;;;12.90;99.90;;;;;;4984509;28;20081;-69
2022/10/16 03:28:51;;;;;;;3.78;0.70;;;12.90;99.90;;;;;;4980620;28;20402;-70
2022/10/16 03:31:16;;;;;;;1.27;0.55;;;12.90;99.90;;;;;;4979311;28;20129;-69
2022/10/16 03:33:42;;;;;;;1.25;0.45;;;12.80;99.90;;;;;;4979449;28;20042;-71
2022/10/16 03:36:07;;;;;;;1.92;0.82;;;12.80;99.90;;;;;;4979558;28;20037;-70
2022/10/16 03:38:33;;;;;;;3.00;0.73;;;12.80;99.90;;;;;;4975236;28;20038;-71
2022/10/16 03:40:59;;;;;;;1.67;0.63;;;12.80;99.90;;;;;;4974061;28;20074;-70
2022/10/16 03:43:24;;;;;;;1.38;0.57;;;12.70;99.90;;;;;;4976349;28;20084;-70
2022/10/16 03:45:51;;;;;;;1.50;0.80;;;12.70;99.90;;;;;;4974554;28;20519;-70
2022/10/16 03:48:17;;;;;;;2.97;0.50;;;12.70;99.90;;;;;;4976706;28;20054;-70
2022/10/16 03:50:43;;;;;;;2.75;0.57;;;12.70;99.90;;;;;;4979591;28;20034;-70
2022/10/16 03:53:09;;;;;;;1.55;0.47;;;12.80;99.90;;;;;;4979411;28;20105;-69
2022/10/16 03:55:35;;;;;;;1.23;0.52;;;12.80;99.90;;;;;;4978649;28;20133;-70
2022/10/16 03:58:01;;;;;;;2.97;0.68;;;12.80;99.90;;;;;;4976780;28;20049;-70
2022/10/16 04:00:26;;;;;;;2.28;0.68;;;12.80;99.90;;;;;;4977702;28;20081;-69
2022/10/16 04:02:52;;;;;;;2.72;0.40;;;12.80;99.90;;;;;;4980332;28;20104;-69
2022/10/16 04:05:18;;;;;;;2.15;0.80;;;12.80;99.90;;;;;;4977642;28;20101;-70
2022/10/16 04:07:43;;;;;;;1.63;0.55;;;12.80;99.90;;;;;;4978612;28;20088;-70
2022/10/16 04:10:09;;;;;;;1.50;0.60;;;12.80;99.90;;;;;;4973076;28;20838;-69
2022/10/16 04:12:34;;;;;;;1.30;1.02;;;12.80;99.90;;;;;;4976797;28;20038;-68
2022/10/16 04:15:00;;;;;;;1.30;0.30;;;12.80;99.90;;;;;;4975056;28;20080;-70
2022/10/16 04:17:26;;;;;;;2.20;0.70;;;12.80;99.90;;;;;;4977729;28;20141;-69
2022/10/16 04:19:51;;;;;;;2.40;0.73;;;12.80;99.90;;;;;;4979151;28;20499;-70
2022/10/16 04:22:17;;;;;;;0.70;0.35;;;12.90;99.90;;;;;;4972099;28;20489;-70
2022/10/16 04:24:42;;;;;;;2.85;0.70;;;12.90;99.90;;;;;;4977639;28;20039;-69
2022/10/16 04:27:08;;;;;;;2.35;0.90;;;12.90;99.90;;;;;;4978140;28;20035;-70
2022/10/16 04:29:33;;;;;;;1.02;0.45;;;12.90;99.90;;;;;;4977057;28;20032;-69
2022/10/16 04:31:59;;;;;;;7.47;1.65;;;12.90;99.90;;;;;;4976116;28;20092;-70
2022/10/16 04:34:24;;;;;;;1.33;0.47;;;12.90;99.90;;;;;;4976350;28;20039;-69
2022/10/16 04:36:50;;;;;;;3.30;0.30;;;12.90;99.90;;;;;;4977536;28;20046;-70
2022/10/16 04:39:16;;;;;;;2.05;0.82;;;12.80;99.90;;;;;;4977928;28;20034;-69
2022/10/16 04:41:42;;;;;;;0.95;0.38;;;12.80;99.90;;;;;;4975744;28;20095;-69
2022/10/16 04:44:08;;;;;;;1.90;0.60;;;12.70;99.90;;;;;;4977932;28;20038;-71
2022/10/16 04:46:33;;;;;;;2.85;0.60;;;12.70;99.90;;;;;;4972870;28;20040;-70
2022/10/16 04:48:59;;;;;;;2.30;0.57;;;12.70;99.90;;;;;;4974488;28;20147;-70
2022/10/16 04:51:26;;;;;;;1.63;0.70;;;12.70;99.90;;;;;;4980171;28;20042;-69
2022/10/16 04:53:51;;;;;;;1.27;0.43;;;12.70;99.90;;;;;;4970335;28;20035;-69
2022/10/16 04:56:17;;;;;;;3.33;0.60;;;12.60;99.90;;;;;;4980143;28;20047;-71
2022/10/16 04:58:43;;;;;;;3.58;0.63;;;12.70;99.90;;;;;;4974476;28;20073;-70
2022/10/16 05:01:08;;;;;;;2.38;0.65;;;12.60;99.90;;;;;;4976874;28;20038;-69
2022/10/16 05:03:34;;;;;;;3.38;0.68;;;12.60;99.90;;;;;;4977880;28;20046;-71
2022/10/16 05:06:00;;;;;;;1.55;0.70;;;12.60;99.90;;;;;;4979042;28;20031;-69
2022/10/16 05:08:25;;;;;;;1.38;0.60;;;12.60;99.90;;;;;;4975635;28;20110;-70
2022/10/16 05:10:51;;;;;;;2.50;0.47;;;12.60;99.90;;;;;;4974610;28;20450;-69
2022/10/16 05:13:17;;;;;;;1.58;0.45;;;12.60;99.90;;;;;;4978674;28;20121;-70
2022/10/16 05:15:46;;;;;;;2.72;0.68;;;12.60;99.90;;;;;;4978137;28;20019;-70
2022/10/16 05:18:11;;;;;;;0.88;0.70;;;12.60;99.90;;;;;;4977565;28;20054;-69
2022/10/16 05:20:37;;;;;;;1.55;0.70;;;12.60;99.90;;;;;;4974783;28;20034;-70
2022/10/16 05:23:02;;;;;;;2.88;0.52;;;12.60;99.90;;;;;;4974060;28;20034;-70
2022/10/16 05:25:28;;;;;;;3.05;0.55;;;12.60;99.90;;;;;;4978148;28;20034;-69
2022/10/16 05:27:54;;;;;;;2.33;0.47;;;12.70;99.90;;;;;;4974085;28;20445;-70
2022/10/16 05:30:20;;;;;;;2.15;0.60;;;12.70;99.90;;;;;;4978373;28;20034;-70
2022/10/16 05:32:50;;;;;;;3.42;0.57;;;12.70;99.90;;;;;;4975160;28;20027;-69
2022/10/16 05:35:17;;;;;;;6.00;0.90;;;12.70;99.90;;;;;;4976212;28;20037;-70
2022/10/16 05:37:43;;;;;;;3.25;0.80;;;12.70;99.90;;;;;;4975048;28;20117;-69
2022/10/16 05:40:09;;;;;;;3.17;0.50;;;12.70;99.90;;;;;;4970214;28;20193;-71
2022/10/16 05:42:35;;;;;;;5.07;0.52;;;12.70;99.90;;;;;;4973057;28;20050;-70
2022/10/16 05:45:01;;;;;;;2.70;1.15;;;12.70;99.90;;;;;;4973020;28;20529;-71
2022/10/16 05:47:26;;;;;;;3.53;0.63;;;12.70;99.90;;;;;;4974908;28;20185;-71
2022/10/16 05:49:53;;;;;;;3.17;0.70;;;12.70;99.90;;;;;;4976911;28;20518;-69
2022/10/16 05:52:18;;;;;;;1.38;0.63;;;12.70;99.90;;;;;;4976528;28;20432;-70
2022/10/16 05:54:44;;;;;;;1.48;0.82;;;12.70;99.90;;;;;;4976069;28;20151;-71
2022/10/16 05:57:09;;;;;;;4.90;0.73;;;12.70;99.90;;;;;;4973982;28;20034;-71
2022/10/16 05:59:35;;;;;;;1.63;0.60;;;12.70;99.90;;;;;;4979643;28;20077;-70
2022/10/16 06:02:00;;;;;;;4.00;0.70;;;12.70;99.90;;;;;;4977107;28;20038;-71
2022/10/16 06:04:26;;;;;;;2.17;0.52;;;12.70;99.90;;;;;;4977631;28;20042;-69
2022/10/16 06:06:52;;;;;;;1.85;0.47;;;12.70;99.90;;;;;;4980400;28;20866;-69
2022/10/16 06:09:17;;;;;;;1.10;0.60;;;12.70;99.90;;;;;;4979443;28;20184;-70
2022/10/16 06:11:43;;;;;;;3.20;0.82;;;12.80;99.90;;;;;;4977746;28;20046;-67
2022/10/16 06:14:09;;;;;;;1.27;0.50;;;12.80;99.90;;;;;;4980632;28;20061;-73
2022/10/16 06:16:35;;;;;;;4.43;0.70;;;12.80;99.90;;;;;;4975809;28;20125;-69
2022/10/16 06:19:04;;;;;;;1.02;0.50;;;12.70;99.90;;;;;;4981848;28;20057;-69
2022/10/16 06:21:29;;;;;;;4.13;0.98;;;12.80;99.90;;;;;;4977737;28;20041;-70
2022/10/16 06:23:56;;;;;;;3.63;1.17;;;12.70;99.90;;;;;;4980492;28;20042;-68
2022/10/16 06:26:24;;;;;;;3.50;0.80;;;12.70;99.90;;;;;;4982204;28;20034;-70
2022/10/16 06:28:50;;;;;;;1.60;0.65;;;12.70;99.90;;;;;;4981912;28;20050;-69
2022/10/16 06:31:16;;;;;;;5.20;0.82;;;12.70;99.90;;;;;;4984696;28;20085;-70
2022/10/16 06:33:42;;;;;;;5.75;0.80;;;12.70;99.90;;;;;;4985524;28;20034;-69
2022/10/16 06:36:11;;;;;;;5.63;1.48;;;12.70;99.90;;;;;;4975833;28;20035;-70
2022/10/16 06:38:37;;;;;;;4.10;1.10;;;12.70;99.90;;;;;;4986619;28;20038;-71
2022/10/16 06:41:04;;;;;;;2.92;0.68;;;12.70;99.90;;;;;;4981214;28;20060;-69
2022/10/16 06:43:32;;;;;;;6.32;1.08;;;12.70;99.90;;;;;;4985445;28;20027;-69
2022/10/16 06:45:59;;;;;;;5.20;0.55;;;12.70;99.90;;;;;;4984833;28;20510;-69
2022/10/16 06:48:25;;;;;;;4.50;0.60;;;12.70;99.90;;;;;;4988184;28;20510;-68
2022/10/16 06:51:06;;;;;;;4.03;1.17;;;12.80;99.90;;;;;;4979973;28;20034;-71
2022/10/16 06:53:34;;;;;;;3.15;0.60;;;12.80;99.90;;;;;;4978132;28;20117;-70
2022/10/16 06:56:11;;;;;;;2.70;0.73;;;12.80;99.90;;;;;;4982096;28;20065;-69
2022/10/16 06:58:37;;;;;;;2.38;0.55;;;12.80;99.90;;;;;;4987471;28;20038;-70
2022/10/16 07:01:04;;;;;;;3.60;0.63;;;12.80;99.90;;;;;;4977533;28;20039;-70
2022/10/16 07:03:29;;;;;;;1.02;0.60;;;13.00;99.90;;;;;;4979977;28;20137;-69
2022/10/16 07:05:56;;;;;;;4.85;0.65;;;12.90;99.90;;;;;;4978185;28;20195;-70
2022/10/16 07:08:21;;;;;;;1.20;0.43;;;13.00;99.90;;;;;;4979562;28;20074;-69
2022/10/16 07:10:47;;;;;;;2.53;0.65;;;13.00;99.90;;;;;;4979407;28;20066;-69
2022/10/16 07:13:14;;;;;;;2.47;0.75;;;13.00;99.90;;;;;;4977183;28;20035;-69
2022/10/16 07:15:40;;;;;;;4.05;0.63;;;13.10;99.90;;;;;;4975988;28;20118;-69
2022/10/16 07:18:06;;;;;;;1.75;0.50;;;13.10;99.90;;;;;;4971583;28;20118;-70
2022/10/16 07:20:31;;;;;;;4.07;0.77;;;13.10;99.90;;;;;;4973835;28;20129;-69
2022/10/16 07:22:57;;;;;;;1.33;0.38;;;13.20;99.90;;;;;;4978901;28;20043;-70
2022/10/16 07:25:22;;;;;;;7.55;1.50;;;13.20;99.90;;;;;;4977368;28;20037;-69
2022/10/16 07:27:48;;;;;;;3.10;0.65;;;13.30;99.90;;;;;;4978438;28;20038;-71
2022/10/16 07:30:14;;;;;;;1.13;0.38;;;13.20;99.90;;;;;;4975546;28;20118;-69
2022/10/16 07:32:39;;;;;;;2.88;0.22;;;13.20;99.90;;;;;;4976917;28;20514;-70
2022/10/16 07:35:05;;;;;;;2.15;0.25;;;13.30;99.90;;;;;;4978103;28;20030;-70
2022/10/16 07:37:31;;;;;;;1.25;0.50;;;13.30;99.90;;;;;;4970052;28;20045;-69
2022/10/16 07:39:56;;;;;;;1.85;0.60;;;13.30;99.90;;;;;;4977523;28;20038;-69
2022/10/16 07:42:22;;;;;;;2.83;0.50;;;13.20;99.90;;;;;;4974744;28;20043;-69
2022/10/16 07:44:48;;;;;;;5.00;1.35;;;13.30;99.90;;;;;;4977367;28;20057;-69
2022/10/16 07:47:13;;;;;;;2.88;0.70;;;13.30;99.90;;;;;;4979242;28;20037;-69
2022/10/16 07:49:39;;;;;;;2.47;0.68;;;13.30;99.90;;;;;;4976806;28;20030;-70
2022/10/16 07:52:04;;;;;;;1.55;0.90;;;13.40;99.90;;;;;;4973348;28;20051;-71
2022/10/16 07:54:30;;;;;;;6.10;1.23;;;13.40;99.90;;;;;;4974881;28;20093;-70
2022/10/16 07:56:56;;;;;;;2.90;0.60;;;13.50;99.90;;;;;;4975562;28;20576;-69
2022/10/16 07:59:21;;;;;;;6.53;0.80;;;13.50;99.90;;;;;;4976530;28;20042;-69
2022/10/16 08:01:49;;;;;;;5.00;1.35;;;13.60;99.90;;;;;;4973159;28;20643;-70
2022/10/16 08:04:14;;;;;;;1.75;0.93;;;13.60;99.90;;;;;;4979198;28;20038;-70
2022/10/16 08:06:41;;;;;;;1.58;0.68;;;13.70;99.90;;;;;;4976864;28;20042;-70
2022/10/16 08:09:08;;;;;;;3.63;1.02;;;13.80;99.90;;;;;;4975363;28;20031;-69
2022/10/16 08:11:33;;;;;;;2.25;0.80;;;13.80;99.90;;;;;;4975260;28;20039;-70
2022/10/16 08:13:59;;;;;;;3.65;0.90;;;13.90;99.90;;;;;;4975381;28;20304;-68
2022/10/16 08:16:24;;;;;;;2.45;1.02;;;14.00;99.90;;;;;;4970825;28;20125;-70
2022/10/16 08:18:51;;;;;;;2.60;0.43;;;14.00;99.90;;;;;;4977250;28;20213;-70
2022/10/16 08:21:20;;;;;;;3.63;0.45;;;14.10;99.90;;;;;;4976303;28;20045;-70
2022/10/16 08:23:46;;;;;;;3.25;0.80;;;14.20;99.90;;;;;;4974909;28;20030;-69
2022/10/16 08:26:12;;;;;;;6.05;0.80;;;14.20;99.90;;;;;;4976635;28;20084;-69
2022/10/16 08:28:38;;;;;;;3.90;0.70;;;14.30;99.90;;;;;;4975147;28;20035;-72
2022/10/16 08:31:12;;;;;;;6.20;0.95;;;14.40;99.90;;;;;;4975500;28;20026;-70
2022/10/16 08:33:40;;;;;;;2.72;0.55;;;14.50;99.90;;;;;;4973463;28;20093;-70
2022/10/16 08:36:06;;;;;;;2.63;0.63;;;14.60;99.90;;;;;;4976646;28;20065;-70
2022/10/16 08:38:32;;;;;;;2.53;0.88;;;14.60;99.90;;;;;;4972393;28;20038;-70
2022/10/16 08:41:34;;;;;;;3.88;0.70;;;14.70;99.90;;;;;;4983456;28;20033;-70
2022/10/16 08:44:37;;;;;;;2.85;0.57;;;14.70;99.90;;;;;;4979248;28;20495;-69
2022/10/16 08:47:17;;;;;;;3.45;0.50;;;14.80;99.90;;;;;;4980730;28;20065;-69
2022/10/16 08:49:58;;;;;;;5.68;0.70;;;14.90;99.90;;;;;;4981077;28;20116;-70
2022/10/16 08:52:29;;;;;;;3.70;0.80;;;14.90;99.90;;;;;;4977938;28;20059;-71
2022/10/16 08:54:55;;;;;;;3.03;0.68;;;15.00;99.90;;;;;;4975645;28;20487;-69
2022/10/16 08:57:24;;;;;;;7.57;0.70;;;15.10;99.90;;;;;;4974940;28;20507;-71
2022/10/16 08:59:49;;;;;;;4.38;1.02;;;15.20;99.90;;;;;;4972209;28;20034;-69
2022/10/16 09:02:54;;;;;;;6.95;0.70;;;15.10;99.90;;;;;;4975167;28;20065;-69
2022/10/16 09:05:36;;;;;;;3.75;0.98;;;15.20;99.90;;;;;;4975474;28;20046;-70
2022/10/16 09:08:24;;;;;;;3.20;0.95;;;15.20;99.90;;;;;;4974935;28;20044;-70
2022/10/16 09:11:12;;;;;;;3.63;0.68;;;15.30;99.90;;;;;;4973836;28;20038;-72
2022/10/16 09:13:58;;;;;;;2.33;0.63;;;15.40;99.90;;;;;;4971469;28;20031;-70
2022/10/16 09:16:48;;;;;;;4.15;0.80;;;15.60;99.90;;;;;;4969654;28;20668;-69
2022/10/16 09:19:35;;;;;;;6.03;1.13;;;15.70;99.90;;;;;;4973019;28;20568;-69
2022/10/16 09:22:10;;;;;;;2.70;0.50;;;15.70;99.90;;;;;;4971735;28;20081;-71
2022/10/16 09:24:36;;;;;;;5.75;0.60;;;15.70;99.90;;;;;;4977216;28;20129;-71
2022/10/16 09:27:02;;;;;;;1.48;0.60;;;15.90;99.90;;;;;;4975966;28;20031;-70
2022/10/16 09:29:28;;;;;;;6.07;0.70;;;15.90;99.90;;;;;;4976238;28;20035;-69
2022/10/16 09:31:57;;;;;;;5.97;0.63;;;16.00;99.90;;;;;;4971452;28;20035;-69
2022/10/16 09:34:30;;;;;;;7.57;0.83;;;16.10;99.90;;;;;;4968350;28;20589;-69
2022/10/16 09:36:58;;;;;;;3.28;0.98;;;16.20;99.90;;;;;;4971134;28;20038;-68
2022/10/16 09:39:24;;;;;;;6.10;0.90;;;16.20;99.90;;;;;;4979054;28;20043;-71
2022/10/16 09:41:50;;;;;;;4.93;0.90;;;16.20;99.90;;;;;;4975883;28;20049;-70
2022/10/16 09:44:18;;;;;;;2.80;0.63;;;16.20;99.90;;;;;;4973437;28;20035;-73
2022/10/16 09:46:44;;;;;;;3.10;0.45;;;16.40;99.90;;;;;;4976886;28;20455;-70
2022/10/16 09:49:26;;;;;;;2.55;0.55;;;16.50;99.90;;;;;;4973341;28;20053;-70
2022/10/16 09:52:05;;;;;;;6.88;0.57;;;16.50;99.90;;;;;;4968595;28;20042;-70
2022/10/16 09:54:30;;;;;;;12.32;0.98;;;16.50;99.90;;;;;;4974312;28;20507;-69
2022/10/16 09:57:06;;;;;;;8.57;1.25;;;16.50;99.90;;;;;;4974491;28;20093;-71
2022/10/16 09:59:31;;;;;;;9.10;0.90;;;16.60;99.90;;;;;;4976114;28;20046;-70
2022/10/16 10:02:03;;;;;;;7.78;1.00;;;16.60;99.90;;;;;;4977894;28;20093;-70
2022/10/16 10:04:43;;;;;;;7.32;1.67;;;16.60;99.90;;;;;;4974537;28;20035;-71
2022/10/16 10:07:20;;;;;;;3.55;0.63;;;16.60;99.90;;;;;;4977123;28;20432;-70
2022/10/16 10:09:46;;;;;;;5.57;0.90;;;16.70;99.90;;;;;;4975301;28;20038;-71
2022/10/16 10:12:27;;;;;;;6.38;0.70;;;16.70;99.90;;;;;;4973537;28;20050;-70
2022/10/16 10:14:55;;;;;;;4.57;0.98;;;16.70;99.90;;;;;;4968586;28;20518;-70
2022/10/16 10:17:26;;;;;;;3.08;0.90;;;16.60;99.90;;;;;;4979763;28;20072;-71
2022/10/16 10:19:55;;;;;;;6.75;0.70;;;16.50;99.90;;;;;;4975058;28;20045;-69
2022/10/16 10:22:31;;;;;;;3.22;0.77;;;16.50;99.90;;;;;;4986068;28;20507;-72
2022/10/16 10:25:04;;;;;;;7.70;0.95;;;16.60;99.90;;;;;;4975258;28;20031;-70
2022/10/16 10:27:48;;;;;;;4.43;0.70;;;16.80;99.90;;;;;;4972872;28;20146;-69
2022/10/16 10:30:35;;;;;;;4.00;1.90;;;16.90;99.90;;;;;;4973534;28;20129;-70
2022/10/16 10:33:25;;;;;;;6.38;1.63;;;16.80;99.90;;;;;;4971508;28;20038;-71
2022/10/16 10:36:12;;;;;;;7.75;1.33;;;16.90;99.90;;;;;;4968643;28;20050;-69
2022/10/16 10:39:10;;;;;;;6.20;1.02;;;17.00;99.90;;;;;;4972836;28;20035;-69
2022/10/16 10:41:57;;;;;;;6.25;0.65;;;17.00;99.90;;;;;;4972328;28;20054;-71
2022/10/16 10:44:38;;;;;;;10.45;1.45;;;17.20;99.90;;;;;;4969574;28;20038;-71
2022/10/16 10:47:13;;;;;;;6.22;1.40;;;17.10;99.90;;;;;;4977023;28;20085;-71
2022/10/16 10:50:06;;;;;;;5.53;0.90;;;17.00;99.90;;;;;;4978090;28;20037;-69
2022/10/16 10:52:51;;;;;;;6.30;0.80;;;16.90;99.90;;;;;;4976174;28;20054;-69
2022/10/16 10:55:19;;;;;;;6.50;0.90;;;16.90;99.90;;;;;;4975014;28;20060;-69
2022/10/16 10:58:13;;;;;;;9.38;1.35;;;16.90;99.90;;;;;;4976879;28;20042;-69
2022/10/16 11:01:11;;;;;;;2.85;0.40;;;17.00;99.90;;;;;;4978350;28;20430;-70
2022/10/16 11:04:07;;;;;;;6.65;0.70;;;17.10;99.90;;;;;;4977531;28;20037;-71
2022/10/16 11:06:51;;;;;;;13.07;1.15;;;17.00;99.90;;;;;;4977237;28;20038;-71
2022/10/16 11:09:22;;;;;;;5.72;0.60;;;17.00;99.90;;;;;;4971362;28;20031;-72
2022/10/16 11:12:05;;;;;;;5.13;0.77;;;16.90;99.90;;;;;;4978481;28;20487;-70
2022/10/16 11:14:33;;;;;;;7.57;0.80;;;16.90;99.90;;;;;;4977787;28;20054;-71
2022/10/16 11:17:11;;;;;;;16.98;2.47;;;16.90;99.90;;;;;;4979866;28;20034;-70
2022/10/16 11:20:00;;;;;;;9.13;1.10;;;17.00;99.90;;;;;;4975567;28;20045;-69
2022/10/16 11:22:40;;;;;;;10.30;0.73;;;17.10;99.90;;;;;;4972944;28;20043;-69
2022/10/16 11:25:20;;;;;;;5.47;1.50;;;17.20;99.90;;;;;;4977904;28;20141;-70
2022/10/16 11:28:07;;;;;;;7.22;0.85;;;17.30;99.90;;;;;;4971996;28;20067;-72
2022/10/16 11:30:56;;;;;;;4.82;0.80;;;17.20;99.90;;;;;;4980994;28;20038;-70
2022/10/16 11:33:43;;;;;;;12.73;1.75;;;17.20;99.90;;;;;;4981689;28;20066;-72
2022/10/16 11:36:14;;;;;;;7.10;0.80;;;17.30;99.90;;;;;;4985071;28;20034;-69
2022/10/16 11:38:53;;;;;;;7.32;0.70;;;17.40;99.90;;;;;;4980657;28;20039;-70
2022/10/16 11:41:48;;;;;;;3.33;0.75;;;17.40;99.90;;;;;;4973524;28;20053;-72
2022/10/16 11:44:38;;;;;;;9.15;0.65;;;17.50;99.90;;;;;;4974937;28;20376;-72
2022/10/16 11:47:04;;;;;;;3.88;0.88;;;17.40;99.90;;;;;;4975863;28;20058;-71
2022/10/16 11:49:32;;;;;;;5.78;0.70;;;17.30;99.90;;;;;;4968806;28;20105;-71
2022/10/16 11:52:28;;;;;;;5.47;1.02;;;17.20;99.90;;;;;;4975832;28;20042;-71
2022/10/16 11:55:12;;;;;;;10.57;1.20;;;17.10;99.90;;;;;;4971302;28;20034;-71
2022/10/16 11:57:51;;;;;;;3.65;1.13;;;17.10;99.90;;;;;;4974513;28;20039;-71
2022/10/16 12:00:28;;;;;;;5.75;0.68;;;17.10;99.90;;;;;;4970763;28;20496;-72
2022/10/16 12:03:05;;;;;;;6.72;1.45;;;17.10;99.90;;;;;;4974710;28;20129;-71
2022/10/16 12:05:43;;;;;;;3.90;0.52;;;17.20;99.90;;;;;;4972241;28;20063;-71
2022/10/16 12:08:14;;;;;;;5.88;0.45;;;17.20;99.90;;;;;;4980404;28;20126;-72
2022/10/16 12:10:43;;;;;;;3.05;0.35;;;17.30;99.90;;;;;;4976404;28;20062;-71
2022/10/16 12:13:36;;;;;;;10.00;1.60;;;17.30;99.90;;;;;;4976126;28;20030;-72
2022/10/16 12:16:12;;;;;;;10.13;1.45;;;17.40;99.90;;;;;;4973084;28;20515;-71
2022/10/16 12:18:42;;;;;;;5.88;1.00;;;17.50;99.90;;;;;;4975529;28;20069;-71
2022/10/16 12:21:10;;;;;;;9.38;0.95;;;17.40;99.90;;;;;;4975537;28;20125;-71
2022/10/16 12:23:47;;;;;;;6.95;0.93;;;17.30;99.90;;;;;;4975394;28;20181;-72
2022/10/16 12:26:13;;;;;;;8.20;1.55;;;17.30;99.90;;;;;;4978813;28;20135;-72
2022/10/16 12:28:40;;;;;;;6.38;0.70;;;17.30;99.90;;;;;;4971929;28;20511;-71
2022/10/16 12:31:09;;;;;;;6.22;0.80;;;17.20;99.90;;;;;;4972668;28;20171;-71
2022/10/16 12:33:51;;;;;;;5.17;0.60;;;17.30;99.90;;;;;;4974596;28;20108;-72
2022/10/16 12:36:29;;;;;;;5.97;0.82;;;17.30;99.90;;;;;;4971049;28;20039;-72
2022/10/16 12:38:55;;;;;;;6.90;1.23;;;17.40;99.90;;;;;;4976118;28;20878;-71
2022/10/16 12:41:28;;;;;;;7.43;0.80;;;17.40;99.90;;;;;;4973767;28;20058;-72
2022/10/16 12:43:54;;;;;;;3.47;0.75;;;17.30;99.90;;;;;;4973621;28;20037;-71
2022/10/16 12:46:19;;;;;;;5.68;0.65;;;17.20;99.90;;;;;;4971556;28;20038;-72
2022/10/16 12:48:46;;;;;;;5.82;0.60;;;17.20;99.90;;;;;;4979327;28;20042;-72
2022/10/16 12:51:30;;;;;;;3.50;1.17;;;17.30;99.90;;;;;;4976936;28;20069;-72
2022/10/16 12:54:37;;;;;;;2.67;0.70;;;17.20;99.90;;;;;;4971275;28;20146;-70
2022/10/16 12:57:24;;;;;;;7.78;1.42;;;17.30;99.90;;;;;;4973831;28;20042;-70
2022/10/16 13:00:04;;;;;;;5.53;0.90;;;17.20;99.90;;;;;;4970148;28;20034;-70
2022/10/16 13:02:53;;;;;;;4.25;0.75;;;17.20;99.90;;;;;;4975090;28;20039;-70
2022/10/16 13:05:56;;;;;;;3.95;0.50;;;17.20;99.90;;;;;;4964814;28;20511;-70